Centerville, California
Current Conditions -  °F | °C
As of 2:53 PM on Saturday 25 Oct 2014 (Local Time) from KFAT Reporting Station
Scattered Clouds Scattered Clouds  
Wind Chill: 80°   Ceiling: Unl
Heat Index: 80°   Visibility: 10mi
Dew Point: 49°   Wind: 10mph
Humidity: 34%   Direction: 280°W
Pressure: 30.03"   Gusts: NA
Location:  36.8137°N, 119.374°W
Report Text: KFAT 252153Z 28009KT 10SM SCT090 27/09 A3003 RMK AO2 SLP166 T02670094
Loading
Personal Weather Stations






























Interactive Weather Map
Tropical Storm Tracking
New forecast layout! Learn more

10-Day Weather Forecast

Advertisements
Track Severe Weather on mobile